Time;durP1;ratioP1;P1;durP2;ratioP2;P2;SDS_P1;SDS_P2;PMS_P1;PMS_P2;Temp;Humidity;BMP_temperature;BMP_pressure;BME280_temperature;BME280_humidity;BME280_pressure;Samples;Min_cycle;Max_cycle;Signal;HPM_P1;HPM_P2
2023/12/03 00:00:16;;;;;;;48.60;26.02;;;;;;;;;;5126581;27;20056;-47
2023/12/03 00:02:43;;;;;;;51.22;24.35;;;;;;;;;;5114929;28;20062;-48
2023/12/03 00:05:11;;;;;;;41.83;21.58;;;;;;;;;;5108958;28;20303;-52
2023/12/03 00:07:38;;;;;;;43.47;18.92;;;;;;;;;;5124044;28;20312;-50
2023/12/03 00:10:05;;;;;;;38.60;17.60;;;;;;;;;;5128524;27;20024;-48
2023/12/03 00:12:33;;;;;;;37.35;16.88;;;;;;;;;;5114293;28;20061;-55
2023/12/03 00:15:00;;;;;;;27.95;14.93;;;;;;;;;;5125583;27;20311;-53
2023/12/03 00:17:26;;;;;;;29.45;14.48;;;;;;;;;;5126056;27;20034;-53
2023/12/03 00:19:53;;;;;;;25.75;13.85;;;;;;;;;;5113161;28;20070;-54
2023/12/03 00:22:21;;;;;;;28.23;13.68;;;;;;;;;;5118298;28;20211;-50
2023/12/03 00:24:47;;;;;;;29.10;13.02;;;;;;;;;;5125827;28;20020;-50
2023/12/03 00:27:14;;;;;;;20.38;12.23;;;;;;;;;;5123770;28;20035;-52
2023/12/03 00:29:41;;;;;;;25.70;12.55;;;;;;;;;;5125977;28;20035;-48
2023/12/03 00:32:10;;;;;;;21.58;12.13;;;;;;;;;;5125570;28;20345;-48
2023/12/03 00:34:37;;;;;;;21.25;11.43;;;;;;;;;;5125471;28;20315;-56
2023/12/03 00:37:03;;;;;;;29.95;11.90;;;;;;;;;;5130770;27;20036;-55
2023/12/03 00:39:31;;;;;;;20.48;10.68;;;;;;;;;;5145638;27;20015;-57
2023/12/03 00:41:58;;;;;;;18.48;10.65;;;;;;;;;;5143381;27;20382;-52
2023/12/03 00:44:25;;;;;;;27.58;11.32;;;;;;;;;;5102756;28;20232;-53
2023/12/03 00:46:52;;;;;;;22.90;9.95;;;;;;;;;;5122737;27;20011;-62
2023/12/03 00:49:19;;;;;;;20.95;11.02;;;;;;;;;;5096893;28;20096;-49
2023/12/03 00:51:46;;;;;;;18.02;10.32;;;;;;;;;;5102923;28;20038;-58
2023/12/03 00:54:12;;;;;;;23.23;10.85;;;;;;;;;;5095784;28;20021;-57
2023/12/03 00:56:39;;;;;;;20.83;10.57;;;;;;;;;;5112193;28;20031;-54
2023/12/03 00:59:06;;;;;;;17.55;9.88;;;;;;;;;;5116108;28;20032;-57
2023/12/03 01:01:33;;;;;;;18.73;9.45;;;;;;;;;;5104946;28;20361;-55
2023/12/03 01:04:02;;;;;;;15.00;9.48;;;;;;;;;;5104520;28;20047;-54
2023/12/03 01:06:29;;;;;;;20.42;8.85;;;;;;;;;;5115827;28;20069;-50
2023/12/03 01:08:56;;;;;;;21.95;9.52;;;;;;;;;;5104672;28;20035;-51
2023/12/03 01:11:22;;;;;;;15.68;8.27;;;;;;;;;;5109726;28;20015;-48
2023/12/03 01:13:49;;;;;;;20.67;8.50;;;;;;;;;;5118381;28;20032;-54
2023/12/03 01:16:17;;;;;;;19.13;8.95;;;;;;;;;;5119560;28;20019;-54
2023/12/03 01:18:44;;;;;;;16.10;8.52;;;;;;;;;;5123058;27;20027;-56
2023/12/03 01:21:10;;;;;;;16.13;8.73;;;;;;;;;;5125195;27;20036;-54
2023/12/03 01:23:37;;;;;;;20.45;9.70;;;;;;;;;;5109986;28;20035;-56
2023/12/03 01:26:05;;;;;;;25.98;9.23;;;;;;;;;;5124328;28;20019;-54
2023/12/03 01:28:31;;;;;;;17.08;9.27;;;;;;;;;;5104101;28;20308;-56
2023/12/03 01:30:58;;;;;;;21.25;9.05;;;;;;;;;;5104308;28;20020;-53
2023/12/03 01:33:25;;;;;;;21.13;8.38;;;;;;;;;;5104139;28;20038;-56
2023/12/03 01:35:51;;;;;;;19.60;8.93;;;;;;;;;;5104150;28;20267;-54
2023/12/03 01:38:18;;;;;;;22.25;8.88;;;;;;;;;;5104158;28;20024;-54
2023/12/03 01:40:54;;;;;;;17.90;8.93;;;;;;;;;;5104169;28;20035;-53
2023/12/03 01:43:21;;;;;;;16.98;10.20;;;;;;;;;;5103923;28;20091;-55
2023/12/03 01:45:48;;;;;;;18.10;11.10;;;;;;;;;;5104265;28;20286;-57
2023/12/03 01:48:16;;;;;;;16.80;10.90;;;;;;;;;;5104012;28;20087;-53
2023/12/03 01:50:43;;;;;;;21.00;11.25;;;;;;;;;;5104053;28;20040;-59
2023/12/03 01:53:10;;;;;;;22.38;10.88;;;;;;;;;;5119621;27;20027;-58
2023/12/03 01:55:37;;;;;;;37.22;16.90;;;;;;;;;;5144843;27;20031;-60
2023/12/03 01:58:06;;;;;;;57.15;28.17;;;;;;;;;;5144607;28;20248;-59
2023/12/03 02:00:33;;;;;;;56.22;27.70;;;;;;;;;;5128966;28;20034;-54
2023/12/03 02:02:59;;;;;;;38.58;20.90;;;;;;;;;;5113082;28;20024;-57
2023/12/03 02:05:26;;;;;;;36.25;19.17;;;;;;;;;;5119693;28;20027;-59
2023/12/03 02:07:53;;;;;;;32.92;17.10;;;;;;;;;;5108296;28;20024;-57
2023/12/03 02:10:20;;;;;;;35.85;16.00;;;;;;;;;;5108565;28;20107;-57
2023/12/03 02:12:47;;;;;;;29.52;13.90;;;;;;;;;;5118455;28;20044;-53
2023/12/03 02:15:14;;;;;;;32.80;13.82;;;;;;;;;;5108953;28;20099;-57
2023/12/03 02:17:41;;;;;;;29.27;14.88;;;;;;;;;;5106732;28;20405;-57
2023/12/03 02:20:09;;;;;;;30.58;15.25;;;;;;;;;;5125517;27;20292;-64
2023/12/03 02:22:40;;;;;;;32.45;14.85;;;;;;;;;;5110843;28;20028;-58
2023/12/03 02:25:07;;;;;;;29.85;14.52;;;;;;;;;;5099659;28;20036;-55
2023/12/03 02:27:34;;;;;;;28.83;15.82;;;;;;;;;;5110517;28;20039;-56
2023/12/03 02:30:01;;;;;;;34.35;15.77;;;;;;;;;;5117295;28;20024;-54
2023/12/03 02:32:28;;;;;;;30.80;13.15;;;;;;;;;;5107437;28;20035;-53
2023/12/03 02:34:55;;;;;;;21.75;10.32;;;;;;;;;;5119844;28;20095;-63
2023/12/03 02:37:22;;;;;;;25.00;10.43;;;;;;;;;;5114773;28;20023;-57
2023/12/03 02:39:48;;;;;;;19.23;10.52;;;;;;;;;;5119967;28;20028;-53
2023/12/03 02:42:15;;;;;;;23.42;10.70;;;;;;;;;;5133800;27;20018;-55
2023/12/03 02:44:42;;;;;;;17.63;9.38;;;;;;;;;;5130166;27;20030;-57
2023/12/03 02:47:08;;;;;;;19.85;9.38;;;;;;;;;;5113005;28;20020;-53
2023/12/03 02:49:35;;;;;;;14.18;8.02;;;;;;;;;;5091035;28;20019;-55
2023/12/03 02:52:02;;;;;;;14.13;7.60;;;;;;;;;;5107385;28;20111;-57
2023/12/03 02:54:28;;;;;;;14.00;7.72;;;;;;;;;;5099010;28;20036;-56
2023/12/03 02:56:55;;;;;;;15.18;7.28;;;;;;;;;;5107407;28;20015;-54
2023/12/03 02:59:22;;;;;;;14.38;7.80;;;;;;;;;;5099028;28;20029;-63
2023/12/03 03:01:49;;;;;;;16.40;7.40;;;;;;;;;;5107276;28;20368;-56
2023/12/03 03:04:15;;;;;;;11.13;6.78;;;;;;;;;;5099221;28;20024;-54
2023/12/03 03:06:42;;;;;;;14.38;6.32;;;;;;;;;;5107241;28;20023;-57
2023/12/03 03:09:09;;;;;;;11.15;6.18;;;;;;;;;;5099750;28;20265;-58
2023/12/03 03:11:37;;;;;;;9.27;6.30;;;;;;;;;;5116109;28;20023;-57
2023/12/03 03:14:04;;;;;;;15.82;7.00;;;;;;;;;;5107180;28;20020;-56
2023/12/03 03:16:31;;;;;;;14.63;7.40;;;;;;;;;;5107128;27;20039;-56
2023/12/03 03:18:57;;;;;;;15.07;6.72;;;;;;;;;;5107055;28;20038;-54
2023/12/03 03:21:25;;;;;;;15.82;7.13;;;;;;;;;;5106777;28;20044;-54
2023/12/03 03:23:52;;;;;;;13.68;8.07;;;;;;;;;;5106821;28;20053;-55
2023/12/03 03:26:19;;;;;;;18.55;7.72;;;;;;;;;;5113366;27;20058;-54
2023/12/03 03:28:45;;;;;;;14.93;7.63;;;;;;;;;;5108885;28;20032;-60
2023/12/03 03:31:12;;;;;;;14.13;7.07;;;;;;;;;;5103608;28;20032;-58
2023/12/03 03:33:39;;;;;;;12.35;6.90;;;;;;;;;;5102417;28;20017;-56
2023/12/03 03:36:06;;;;;;;10.88;6.32;;;;;;;;;;5105402;28;20128;-60
2023/12/03 03:38:33;;;;;;;14.68;6.05;;;;;;;;;;5127122;28;20166;-60
2023/12/03 03:40:59;;;;;;;13.55;7.70;;;;;;;;;;5126779;28;20023;-58
2023/12/03 03:43:26;;;;;;;16.88;8.60;;;;;;;;;;5120616;28;20050;-59
2023/12/03 03:45:53;;;;;;;12.65;8.50;;;;;;;;;;5126857;28;20357;-60
2023/12/03 03:48:20;;;;;;;13.32;7.82;;;;;;;;;;5126696;28;20030;-60
2023/12/03 03:50:46;;;;;;;10.95;6.72;;;;;;;;;;5120879;28;20048;-60
2023/12/03 03:53:13;;;;;;;15.10;6.25;;;;;;;;;;5115224;28;20028;-56
2023/12/03 03:55:40;;;;;;;12.05;6.25;;;;;;;;;;5106110;28;20028;-59
2023/12/03 03:58:06;;;;;;;11.32;5.80;;;;;;;;;;5088096;28;20028;-59
2023/12/03 04:00:33;;;;;;;13.45;5.70;;;;;;;;;;5106502;28;20239;-61
2023/12/03 04:03:00;;;;;;;10.48;5.40;;;;;;;;;;5105874;28;20020;-59
2023/12/03 04:05:27;;;;;;;14.60;5.68;;;;;;;;;;5106581;28;20323;-58
2023/12/03 04:07:53;;;;;;;10.63;4.82;;;;;;;;;;5106066;28;20111;-59
2023/12/03 04:10:21;;;;;;;11.73;5.10;;;;;;;;;;5108852;27;20066;-58
2023/12/03 04:12:49;;;;;;;10.93;5.35;;;;;;;;;;5132274;27;20189;-51
2023/12/03 04:15:16;;;;;;;10.35;4.90;;;;;;;;;;5138820;27;20248;-50
2023/12/03 04:17:44;;;;;;;11.48;5.22;;;;;;;;;;5146543;27;20051;-57
2023/12/03 04:20:11;;;;;;;15.18;4.78;;;;;;;;;;5146628;27;20106;-51
2023/12/03 04:22:38;;;;;;;10.90;4.60;;;;;;;;;;5146068;27;20086;-54
2023/12/03 04:25:05;;;;;;;9.73;4.57;;;;;;;;;;5146569;27;20023;-51
2023/12/03 04:27:32;;;;;;;9.13;4.82;;;;;;;;;;5146966;27;20023;-52
2023/12/03 04:29:58;;;;;;;9.48;4.88;;;;;;;;;;5146869;27;20349;-54
2023/12/03 04:32:25;;;;;;;11.95;4.72;;;;;;;;;;5146693;27;20014;-58
2023/12/03 04:34:53;;;;;;;8.77;4.32;;;;;;;;;;5147004;27;20031;-55
2023/12/03 04:37:20;;;;;;;7.63;4.32;;;;;;;;;;5146570;27;20035;-53
2023/12/03 04:39:48;;;;;;;7.32;4.60;;;;;;;;;;5146446;27;20088;-54
2023/12/03 04:42:14;;;;;;;6.45;4.40;;;;;;;;;;5146217;27;20023;-54
2023/12/03 04:44:41;;;;;;;6.80;5.00;;;;;;;;;;5146615;27;20375;-55
2023/12/03 04:47:08;;;;;;;5.90;4.22;;;;;;;;;;5145975;27;20026;-54
2023/12/03 04:49:34;;;;;;;5.90;4.22;;;;;;;;;;5137945;27;20031;-57
2023/12/03 04:52:01;;;;;;;7.43;4.72;;;;;;;;;;5146260;27;20031;-57
2023/12/03 04:54:28;;;;;;;7.43;4.85;;;;;;;;;;5146482;27;20266;-55
2023/12/03 04:56:55;;;;;;;10.32;5.07;;;;;;;;;;5145883;27;20259;-52
2023/12/03 04:59:22;;;;;;;9.30;4.53;;;;;;;;;;5146558;27;20203;-54
2023/12/03 05:01:49;;;;;;;10.50;4.43;;;;;;;;;;5124731;27;20012;-56
2023/12/03 05:04:16;;;;;;;11.30;4.57;;;;;;;;;;5104977;28;20196;-48
2023/12/03 05:06:43;;;;;;;6.82;4.22;;;;;;;;;;5104942;28;20035;-57
2023/12/03 05:09:11;;;;;;;8.38;4.90;;;;;;;;;;5104774;28;20020;-50
2023/12/03 05:11:41;;;;;;;10.02;4.47;;;;;;;;;;5105033;28;20024;-55
2023/12/03 05:14:08;;;;;;;7.75;4.75;;;;;;;;;;5104649;28;20103;-53
2023/12/03 05:16:36;;;;;;;10.45;4.75;;;;;;;;;;5104980;28;20204;-54
2023/12/03 05:19:03;;;;;;;10.48;4.78;;;;;;;;;;5104811;28;20048;-51
2023/12/03 05:21:29;;;;;;;6.80;4.68;;;;;;;;;;5104384;28;20040;-52
2023/12/03 05:23:56;;;;;;;8.23;5.20;;;;;;;;;;5104357;28;20024;-53
2023/12/03 05:26:24;;;;;;;7.50;4.97;;;;;;;;;;5104404;28;20312;-54
2023/12/03 05:28:50;;;;;;;9.65;5.00;;;;;;;;;;5104392;28;20028;-53
2023/12/03 05:31:17;;;;;;;7.82;4.40;;;;;;;;;;5104753;28;20020;-53
2023/12/03 05:33:44;;;;;;;8.88;4.47;;;;;;;;;;5104728;28;20035;-51
2023/12/03 05:36:20;;;;;;;8.13;4.40;;;;;;;;;;5104844;28;20205;-52
2023/12/03 05:38:47;;;;;;;8.75;5.07;;;;;;;;;;5103551;28;20099;-49
2023/12/03 05:41:14;;;;;;;7.70;4.20;;;;;;;;;;5104751;28;20078;-50
2023/12/03 05:43:41;;;;;;;6.07;3.85;;;;;;;;;;5104383;28;20031;-53
2023/12/03 05:46:08;;;;;;;6.07;3.63;;;;;;;;;;5104010;28;20026;-52
2023/12/03 05:48:34;;;;;;;6.70;4.05;;;;;;;;;;5095982;28;20034;-52
2023/12/03 05:51:01;;;;;;;6.68;3.83;;;;;;;;;;5104462;28;20012;-51
2023/12/03 05:53:28;;;;;;;7.75;3.88;;;;;;;;;;5104255;28;20044;-54
2023/12/03 05:55:54;;;;;;;5.40;3.60;;;;;;;;;;5104294;28;20054;-52
2023/12/03 05:58:21;;;;;;;5.90;3.53;;;;;;;;;;5104443;28;20057;-51
2023/12/03 06:00:48;;;;;;;8.60;3.95;;;;;;;;;;5104265;28;20109;-53
2023/12/03 06:03:14;;;;;;;5.43;3.50;;;;;;;;;;5104219;28;20039;-53
2023/12/03 06:05:41;;;;;;;7.50;3.80;;;;;;;;;;5104291;28;20023;-55
2023/12/03 06:08:08;;;;;;;6.82;3.30;;;;;;;;;;5104246;28;20039;-54
2023/12/03 06:10:35;;;;;;;7.80;3.50;;;;;;;;;;5096340;28;20038;-55
2023/12/03 06:13:01;;;;;;;4.82;2.95;;;;;;;;;;5104428;28;20070;-52
2023/12/03 06:15:28;;;;;;;5.05;3.22;;;;;;;;;;5104437;28;20092;-54
2023/12/03 06:17:55;;;;;;;8.15;3.13;;;;;;;;;;5104409;28;20028;-55
2023/12/03 06:20:21;;;;;;;6.95;3.53;;;;;;;;;;5104176;28;20055;-53
2023/12/03 06:22:48;;;;;;;6.68;3.42;;;;;;;;;;5104043;28;20100;-52
2023/12/03 06:25:16;;;;;;;4.80;3.13;;;;;;;;;;5104328;28;20063;-53
2023/12/03 06:27:44;;;;;;;5.10;2.75;;;;;;;;;;5103721;28;20040;-53
2023/12/03 06:30:11;;;;;;;4.95;2.78;;;;;;;;;;5103938;28;20077;-55
2023/12/03 06:32:38;;;;;;;4.93;2.92;;;;;;;;;;5104028;28;20278;-52
2023/12/03 06:35:05;;;;;;;4.43;2.70;;;;;;;;;;5104282;28;20031;-50
2023/12/03 06:37:32;;;;;;;6.18;3.00;;;;;;;;;;5103954;28;20026;-53
2023/12/03 06:39:59;;;;;;;6.00;2.78;;;;;;;;;;5104160;28;20036;-53
2023/12/03 06:42:26;;;;;;;4.55;2.78;;;;;;;;;;5103990;28;20182;-53
2023/12/03 06:44:52;;;;;;;4.80;2.80;;;;;;;;;;5104482;28;20028;-50
2023/12/03 06:47:19;;;;;;;5.53;2.90;;;;;;;;;;5103586;28;20040;-54
2023/12/03 06:49:47;;;;;;;10.20;3.00;;;;;;;;;;5106504;28;20031;-51
2023/12/03 06:52:14;;;;;;;5.97;3.00;;;;;;;;;;5107246;28;20027;-52
2023/12/03 06:54:40;;;;;;;5.28;3.00;;;;;;;;;;5107611;28;20475;-52
2023/12/03 06:57:07;;;;;;;6.90;3.10;;;;;;;;;;5107518;28;20042;-55
2023/12/03 06:59:34;;;;;;;7.60;2.70;;;;;;;;;;5107894;28;20028;-55
2023/12/03 07:02:01;;;;;;;6.38;3.13;;;;;;;;;;5107181;28;20224;-54
2023/12/03 07:04:28;;;;;;;4.95;2.80;;;;;;;;;;5107798;28;20083;-52
2023/12/03 07:06:54;;;;;;;6.05;2.80;;;;;;;;;;5107174;28;20031;-53
2023/12/03 07:09:21;;;;;;;4.90;3.10;;;;;;;;;;5107526;28;20100;-56
2023/12/03 07:11:48;;;;;;;5.40;3.17;;;;;;;;;;5124692;28;20019;-53
2023/12/03 07:14:15;;;;;;;8.07;3.55;;;;;;;;;;5127887;28;20016;-54
2023/12/03 07:16:42;;;;;;;7.15;2.97;;;;;;;;;;5127818;28;20020;-53
2023/12/03 07:19:08;;;;;;;7.30;3.42;;;;;;;;;;5127643;28;20078;-52
2023/12/03 07:21:35;;;;;;;7.00;3.35;;;;;;;;;;5118925;28;20095;-54
2023/12/03 07:24:02;;;;;;;15.30;3.97;;;;;;;;;;5127235;28;20031;-52
2023/12/03 07:26:29;;;;;;;12.48;4.00;;;;;;;;;;5127060;28;20052;-52
2023/12/03 07:28:56;;;;;;;13.50;3.80;;;;;;;;;;5127587;28;20024;-54
2023/12/03 07:31:23;;;;;;;7.05;4.00;;;;;;;;;;5126928;28;20212;-52
2023/12/03 07:33:49;;;;;;;7.78;3.63;;;;;;;;;;5127545;28;20030;-52
2023/12/03 07:36:16;;;;;;;5.28;3.53;;;;;;;;;;5127224;28;20027;-54
2023/12/03 07:38:43;;;;;;;9.55;4.03;;;;;;;;;;5127358;28;20039;-53
2023/12/03 07:41:10;;;;;;;5.63;3.40;;;;;;;;;;5127219;28;20042;-53
2023/12/03 07:43:37;;;;;;;8.02;3.65;;;;;;;;;;5127223;28;20055;-53
2023/12/03 07:46:04;;;;;;;8.77;3.70;;;;;;;;;;5126705;28;20095;-55
2023/12/03 07:48:31;;;;;;;7.07;3.42;;;;;;;;;;5127202;28;20022;-54
2023/12/03 07:50:58;;;;;;;7.50;3.72;;;;;;;;;;5127600;28;20016;-52
2023/12/03 07:53:25;;;;;;;6.90;3.65;;;;;;;;;;5127258;28;20019;-59
2023/12/03 07:55:51;;;;;;;5.63;3.70;;;;;;;;;;5127051;28;20020;-52
2023/12/03 07:58:18;;;;;;;7.13;3.25;;;;;;;;;;5117814;28;20024;-57
2023/12/03 08:00:45;;;;;;;7.57;3.40;;;;;;;;;;5105827;28;20192;-49
2023/12/03 08:03:12;;;;;;;4.85;3.00;;;;;;;;;;5106090;28;20073;-52
2023/12/03 08:05:40;;;;;;;6.65;3.30;;;;;;;;;;5106182;28;20023;-53
2023/12/03 08:08:07;;;;;;;8.18;3.20;;;;;;;;;;5106162;28;20075;-55
2023/12/03 08:10:34;;;;;;;7.72;3.30;;;;;;;;;;5106255;28;20027;-56
2023/12/03 08:13:01;;;;;;;4.78;3.00;;;;;;;;;;5105982;28;20077;-53
2023/12/03 08:15:28;;;;;;;8.63;3.50;;;;;;;;;;5106376;28;20295;-53
2023/12/03 08:17:55;;;;;;;4.25;3.00;;;;;;;;;;5106149;28;20027;-56
2023/12/03 08:20:22;;;;;;;4.55;2.80;;;;;;;;;;5106162;28;20113;-56
2023/12/03 08:22:48;;;;;;;5.28;3.03;;;;;;;;;;5105858;28;20256;-53
2023/12/03 08:25:15;;;;;;;4.90;2.97;;;;;;;;;;5106105;28;20083;-59
2023/12/03 08:27:42;;;;;;;6.80;3.10;;;;;;;;;;5105610;28;20035;-50
2023/12/03 08:30:09;;;;;;;4.80;2.90;;;;;;;;;;5106103;28;20091;-54
2023/12/03 08:32:36;;;;;;;4.30;2.80;;;;;;;;;;5105691;28;20336;-53
2023/12/03 08:35:03;;;;;;;7.78;3.20;;;;;;;;;;5106214;28;20085;-54
2023/12/03 08:37:30;;;;;;;6.90;2.88;;;;;;;;;;5105537;28;20054;-54
2023/12/03 08:39:58;;;;;;;5.78;2.78;;;;;;;;;;5105620;28;20035;-53
2023/12/03 08:42:24;;;;;;;4.57;2.60;;;;;;;;;;5105880;28;20024;-51
2023/12/03 08:44:51;;;;;;;12.10;2.95;;;;;;;;;;5106014;28;20024;-53
2023/12/03 08:47:18;;;;;;;4.90;2.38;;;;;;;;;;5105157;28;20019;-50
2023/12/03 08:49:44;;;;;;;4.45;2.85;;;;;;;;;;5105641;28;20028;-53
2023/12/03 08:52:12;;;;;;;6.15;2.53;;;;;;;;;;5105156;28;20032;-59
2023/12/03 08:54:39;;;;;;;5.00;2.88;;;;;;;;;;5105426;28;20271;-54
2023/12/03 08:57:06;;;;;;;4.00;2.60;;;;;;;;;;5105381;28;20083;-49
2023/12/03 08:59:32;;;;;;;5.95;2.90;;;;;;;;;;5105470;28;20028;-55
2023/12/03 09:01:59;;;;;;;4.28;2.55;;;;;;;;;;5105279;28;20023;-53
2023/12/03 09:04:26;;;;;;;6.43;2.58;;;;;;;;;;5105166;28;20044;-51
2023/12/03 09:06:53;;;;;;;6.10;2.58;;;;;;;;;;5105152;28;20027;-51
2023/12/03 09:09:19;;;;;;;5.03;2.40;;;;;;;;;;5104892;28;20016;-53
2023/12/03 09:11:46;;;;;;;5.60;2.70;;;;;;;;;;5104964;28;20024;-54
2023/12/03 09:14:13;;;;;;;7.45;2.92;;;;;;;;;;5104962;28;20052;-55
2023/12/03 09:16:39;;;;;;;4.97;3.08;;;;;;;;;;5104973;28;20026;-53
2023/12/03 09:19:06;;;;;;;4.68;3.08;;;;;;;;;;5105240;28;20032;-51
2023/12/03 09:21:33;;;;;;;7.25;3.80;;;;;;;;;;5104939;28;20315;-53
2023/12/03 09:23:59;;;;;;;7.80;3.88;;;;;;;;;;5104680;28;20043;-53
2023/12/03 09:26:26;;;;;;;6.88;4.63;;;;;;;;;;5104730;28;20024;-52
2023/12/03 09:28:53;;;;;;;8.57;4.75;;;;;;;;;;5104948;28;20040;-52
2023/12/03 09:31:20;;;;;;;10.80;4.28;;;;;;;;;;5104395;28;20023;-52
2023/12/03 09:33:47;;;;;;;7.53;4.57;;;;;;;;;;5104151;28;20028;-54
2023/12/03 09:36:14;;;;;;;8.02;3.80;;;;;;;;;;5104465;28;20035;-51
2023/12/03 09:38:40;;;;;;;9.45;3.83;;;;;;;;;;5104439;28;20069;-50
2023/12/03 09:41:09;;;;;;;11.85;3.40;;;;;;;;;;5104577;28;20339;-50
2023/12/03 09:43:38;;;;;;;9.95;3.83;;;;;;;;;;5104396;28;20042;-51
2023/12/03 09:46:07;;;;;;;7.60;3.30;;;;;;;;;;5104096;28;20326;-48
2023/12/03 09:48:34;;;;;;;6.55;3.10;;;;;;;;;;5104581;28;20020;-51
2023/12/03 09:51:01;;;;;;;9.55;3.42;;;;;;;;;;5104096;28;20028;-50
2023/12/03 09:53:31;;;;;;;9.63;2.95;;;;;;;;;;5104175;28;20182;-50
2023/12/03 09:55:58;;;;;;;9.80;3.47;;;;;;;;;;5104493;28;20328;-49
2023/12/03 09:58:25;;;;;;;10.10;2.85;;;;;;;;;;5103542;28;20034;-54
2023/12/03 10:00:53;;;;;;;6.95;2.50;;;;;;;;;;5104089;28;20342;-55
2023/12/03 10:03:20;;;;;;;9.15;3.28;;;;;;;;;;5103881;28;20043;-56
2023/12/03 10:05:49;;;;;;;7.18;2.88;;;;;;;;;;5104605;28;20028;-56
2023/12/03 10:08:16;;;;;;;6.20;2.80;;;;;;;;;;5104663;28;20020;-52
2023/12/03 10:10:47;;;;;;;4.90;2.70;;;;;;;;;;5104786;28;20020;-53
2023/12/03 10:13:14;;;;;;;6.70;2.47;;;;;;;;;;5104188;28;20059;-54
2023/12/03 10:15:41;;;;;;;5.00;2.38;;;;;;;;;;5104313;28;20044;-51
2023/12/03 10:18:08;;;;;;;6.85;2.90;;;;;;;;;;5104316;28;20028;-55
2023/12/03 10:20:35;;;;;;;6.72;2.60;;;;;;;;;;5103693;28;20056;-51
2023/12/03 10:23:02;;;;;;;4.60;2.55;;;;;;;;;;5104135;28;20088;-51
2023/12/03 10:25:35;;;;;;;4.65;2.63;;;;;;;;;;5108215;28;20087;-52
2023/12/03 10:28:08;;;;;;;6.20;2.63;;;;;;;;;;5108253;28;20122;-54
2023/12/03 10:30:37;;;;;;;5.28;2.67;;;;;;;;;;5099714;28;20343;-53
2023/12/03 10:33:04;;;;;;;5.40;2.67;;;;;;;;;;5108246;28;20316;-53
2023/12/03 10:35:35;;;;;;;4.40;2.42;;;;;;;;;;5108734;28;20020;-51
2023/12/03 10:38:01;;;;;;;4.60;2.50;;;;;;;;;;5140557;27;20023;-50
2023/12/03 10:40:33;;;;;;;4.85;2.28;;;;;;;;;;5149216;27;20311;-53
2023/12/03 10:43:01;;;;;;;4.57;2.25;;;;;;;;;;5148554;27;20049;-52
2023/12/03 10:45:30;;;;;;;4.22;2.38;;;;;;;;;;5149038;27;20019;-53
2023/12/03 10:48:00;;;;;;;6.25;2.63;;;;;;;;;;5148454;27;20294;-53
2023/12/03 10:50:27;;;;;;;7.43;2.90;;;;;;;;;;5148673;27;20023;-50
2023/12/03 10:52:55;;;;;;;8.30;2.70;;;;;;;;;;5148422;27;20023;-53
2023/12/03 10:55:22;;;;;;;5.80;2.83;;;;;;;;;;5148845;27;20311;-55
2023/12/03 10:57:57;;;;;;;6.43;3.00;;;;;;;;;;5148324;27;20023;-48
2023/12/03 11:00:25;;;;;;;8.20;2.95;;;;;;;;;;5149181;27;20043;-51
2023/12/03 11:02:58;;;;;;;11.00;2.88;;;;;;;;;;5148148;27;20090;-56
2023/12/03 11:05:25;;;;;;;10.52;3.33;;;;;;;;;;5149171;27;20149;-54
2023/12/03 11:07:52;;;;;;;9.35;2.80;;;;;;;;;;5148344;27;20026;-56
2023/12/03 11:10:18;;;;;;;10.90;2.92;;;;;;;;;;5148438;27;20019;-52
2023/12/03 11:12:46;;;;;;;5.88;3.00;;;;;;;;;;5148330;27;20027;-55
2023/12/03 11:15:13;;;;;;;11.63;3.00;;;;;;;;;;5148767;27;20061;-51
2023/12/03 11:17:41;;;;;;;10.77;3.03;;;;;;;;;;5148062;27;20083;-51
2023/12/03 11:20:13;;;;;;;10.10;2.83;;;;;;;;;;5148378;27;20046;-55
2023/12/03 11:22:43;;;;;;;9.18;3.00;;;;;;;;;;5147822;27;20042;-51
2023/12/03 11:25:10;;;;;;;10.73;3.17;;;;;;;;;;5148512;27;20030;-54
2023/12/03 11:27:41;;;;;;;6.18;2.90;;;;;;;;;;5147840;27;20046;-50
2023/12/03 11:30:08;;;;;;;6.40;2.90;;;;;;;;;;5148018;27;20019;-52
2023/12/03 11:32:36;;;;;;;6.07;2.85;;;;;;;;;;5139932;27;20098;-54
2023/12/03 11:35:06;;;;;;;4.93;2.67;;;;;;;;;;5146871;27;20088;-54
2023/12/03 11:37:33;;;;;;;6.80;2.95;;;;;;;;;;5147508;27;20019;-49
2023/12/03 11:40:08;;;;;;;7.93;3.30;;;;;;;;;;5147974;27;20030;-54
2023/12/03 11:42:45;;;;;;;8.38;3.35;;;;;;;;;;5147370;27;20133;-51
2023/12/03 11:45:23;;;;;;;8.45;3.33;;;;;;;;;;5147836;27;20062;-50
2023/12/03 11:48:05;;;;;;;10.13;2.88;;;;;;;;;;5147267;27;20031;-55
2023/12/03 11:50:31;;;;;;;;;;;;;;;;;;5148138;27;20038;-49
2023/12/03 11:52:58;;;;;;;7.35;3.10;;;;;;;;;;5147414;27;19922;-52
2023/12/03 11:55:27;;;;;;;13.77;3.72;;;;;;;;;;5147429;27;20056;-49
2023/12/03 11:57:54;;;;;;;13.75;3.67;;;;;;;;;;5147199;27;20029;-54
2023/12/03 12:00:24;;;;;;;14.05;3.47;;;;;;;;;;5147875;27;20023;-52
2023/12/03 12:02:51;;;;;;;26.92;4.30;;;;;;;;;;5147143;27;20035;-53
2023/12/03 12:05:18;;;;;;;9.48;3.50;;;;;;;;;;5147468;27;20023;-52
2023/12/03 12:07:57;;;;;;;4.47;3.10;;;;;;;;;;5147481;27;20023;-52
2023/12/03 12:10:23;;;;;;;7.47;3.10;;;;;;;;;;5148011;27;20079;-52
2023/12/03 12:12:50;;;;;;;13.02;3.60;;;;;;;;;;5147500;27;20023;-55
2023/12/03 12:15:17;;;;;;;12.27;3.45;;;;;;;;;;5147505;27;20091;-57
2023/12/03 12:17:44;;;;;;;6.60;3.45;;;;;;;;;;5147110;27;20027;-49
2023/12/03 12:20:11;;;;;;;7.35;3.13;;;;;;;;;;5146919;27;20058;-52
2023/12/03 12:22:40;;;;;;;8.15;3.83;;;;;;;;;;5146708;27;20027;-49
2023/12/03 12:25:08;;;;;;;11.23;3.28;;;;;;;;;;5146892;27;20023;-52
2023/12/03 12:27:35;;;;;;;12.48;3.42;;;;;;;;;;5146742;27;20027;-56
2023/12/03 12:30:03;;;;;;;10.90;3.42;;;;;;;;;;5147325;27;20035;-55
2023/12/03 12:32:29;;;;;;;7.50;3.15;;;;;;;;;;5126500;27;20316;-52
2023/12/03 12:34:59;;;;;;;15.90;3.58;;;;;;;;;;5110449;28;20059;-54
2023/12/03 12:37:26;;;;;;;8.73;2.97;;;;;;;;;;5105475;28;20032;-55
2023/12/03 12:39:53;;;;;;;7.07;3.08;;;;;;;;;;5105248;28;20032;-53
2023/12/03 12:42:24;;;;;;;5.65;3.00;;;;;;;;;;5105058;28;20152;-53
2023/12/03 12:44:52;;;;;;;9.95;3.63;;;;;;;;;;5105460;28;20032;-51
2023/12/03 12:47:18;;;;;;;8.50;3.20;;;;;;;;;;5104660;28;20024;-56
2023/12/03 12:49:53;;;;;;;8.93;3.22;;;;;;;;;;5104896;28;20024;-50
2023/12/03 12:52:21;;;;;;;8.27;3.40;;;;;;;;;;5104992;28;20024;-56
2023/12/03 12:54:50;;;;;;;8.55;3.45;;;;;;;;;;5105198;28;20039;-55
2023/12/03 12:57:17;;;;;;;11.43;3.17;;;;;;;;;;5105986;27;20038;-53
2023/12/03 12:59:44;;;;;;;7.07;3.17;;;;;;;;;;5141619;27;20027;-54
2023/12/03 13:02:21;;;;;;;5.97;3.30;;;;;;;;;;5145910;27;20015;-53
2023/12/03 13:04:48;;;;;;;9.85;3.40;;;;;;;;;;5146083;27;20076;-55
2023/12/03 13:07:16;;;;;;;9.18;3.42;;;;;;;;;;5143488;27;20034;-54
2023/12/03 13:09:44;;;;;;;8.15;3.53;;;;;;;;;;5102602;28;20099;-55
2023/12/03 13:12:11;;;;;;;6.60;3.30;;;;;;;;;;5126784;27;20023;-55
2023/12/03 13:14:38;;;;;;;12.13;3.58;;;;;;;;;;5101379;28;20028;-53
2023/12/03 13:17:05;;;;;;;7.72;3.47;;;;;;;;;;5104707;28;20020;-55
2023/12/03 13:19:32;;;;;;;5.88;3.50;;;;;;;;;;5141469;27;20031;-51
2023/12/03 13:21:58;;;;;;;10.00;4.30;;;;;;;;;;5120996;27;20030;-52
2023/12/03 13:24:29;;;;;;;8.13;3.90;;;;;;;;;;5121523;28;20072;-47
2023/12/03 13:26:58;;;;;;;9.27;4.03;;;;;;;;;;5114775;28;20040;-51
2023/12/03 13:29:24;;;;;;;6.60;3.88;;;;;;;;;;5110402;28;20334;-44
2023/12/03 13:31:51;;;;;;;7.95;4.50;;;;;;;;;;5124818;28;20042;-49
2023/12/03 13:34:18;;;;;;;17.50;4.55;;;;;;;;;;5121047;28;20075;-51
2023/12/03 13:36:44;;;;;;;8.60;4.30;;;;;;;;;;5123902;28;20338;-47
2023/12/03 13:39:11;;;;;;;11.77;4.07;;;;;;;;;;5123638;28;20043;-49
2023/12/03 13:41:38;;;;;;;9.68;4.13;;;;;;;;;;5123991;28;20063;-48
2023/12/03 13:44:05;;;;;;;9.57;4.65;;;;;;;;;;5122260;28;20035;-49
2023/12/03 13:46:31;;;;;;;7.40;4.00;;;;;;;;;;5122985;28;20043;-50
2023/12/03 13:48:59;;;;;;;8.82;3.92;;;;;;;;;;5122970;28;20031;-47
2023/12/03 13:51:27;;;;;;;8.90;4.35;;;;;;;;;;5122879;28;20019;-50
2023/12/03 13:53:54;;;;;;;10.60;4.47;;;;;;;;;;5123003;28;20061;-50
2023/12/03 13:56:22;;;;;;;11.40;4.30;;;;;;;;;;5123326;28;20046;-48
2023/12/03 13:58:48;;;;;;;9.93;4.00;;;;;;;;;;5124655;28;20026;-46
2023/12/03 14:01:15;;;;;;;9.05;4.03;;;;;;;;;;5125357;28;20035;-49
2023/12/03 14:03:42;;;;;;;6.65;3.63;;;;;;;;;;5125310;28;20094;-51
2023/12/03 14:06:10;;;;;;;6.70;3.45;;;;;;;;;;5125305;28;20055;-51
2023/12/03 14:08:38;;;;;;;8.23;3.53;;;;;;;;;;5125289;28;20312;-49
2023/12/03 14:11:06;;;;;;;7.38;3.67;;;;;;;;;;5125294;28;20051;-47
2023/12/03 14:13:34;;;;;;;10.75;3.65;;;;;;;;;;5125018;28;20224;-51
2023/12/03 14:16:00;;;;;;;8.20;4.03;;;;;;;;;;5125154;28;20042;-47
2023/12/03 14:18:27;;;;;;;10.95;4.07;;;;;;;;;;5124958;28;20030;-52
2023/12/03 14:20:54;;;;;;;11.35;4.22;;;;;;;;;;5124655;28;20078;-50
2023/12/03 14:23:21;;;;;;;13.25;3.97;;;;;;;;;;5125065;28;20028;-49
2023/12/03 14:25:48;;;;;;;11.65;4.32;;;;;;;;;;5125179;28;20020;-48
2023/12/03 14:28:15;;;;;;;14.27;4.20;;;;;;;;;;5125002;28;20074;-49
2023/12/03 14:30:41;;;;;;;21.40;4.15;;;;;;;;;;5125169;28;20041;-53
2023/12/03 14:33:10;;;;;;;8.88;4.07;;;;;;;;;;5106712;28;20218;-51
2023/12/03 14:35:37;;;;;;;8.20;3.85;;;;;;;;;;5117008;28;20034;-51